sensor_id;sensor_type;location;lat;lon;timestamp;pressure;altitude;pressure_sealevel;temperature;humidity
75646;BME280;64237;52.438;13.240;2023-02-28T00:01:19;102716.88;;;0.45;78.62
75646;BME280;64237;52.438;13.240;2023-02-28T00:03:44;102713.25;;;0.56;78.74
75646;BME280;64237;52.438;13.240;2023-02-28T00:06:10;102717.06;;;0.64;77.70
75646;BME280;64237;52.438;13.240;2023-02-28T00:08:36;102726.63;;;0.59;78.14
75646;BME280;64237;52.438;13.240;2023-02-28T00:11:03;102720.19;;;0.60;78.16
75646;BME280;64237;52.438;13.240;2023-02-28T00:13:29;102720.31;;;0.58;77.96
75646;BME280;64237;52.438;13.240;2023-02-28T00:16:03;102709.41;;;0.58;78.53
75646;BME280;64237;52.438;13.240;2023-02-28T00:18:28;102722.53;;;0.64;77.86
75646;BME280;64237;52.438;13.240;2023-02-28T00:20:54;102715.06;;;0.66;78.12
75646;BME280;64237;52.438;13.240;2023-02-28T00:23:22;102711.34;;;0.67;78.53
75646;BME280;64237;52.438;13.240;2023-02-28T00:25:47;102716.53;;;0.71;78.30
75646;BME280;64237;52.438;13.240;2023-02-28T00:28:12;102721.47;;;0.77;78.16
75646;BME280;64237;52.438;13.240;2023-02-28T00:30:38;102714.28;;;0.76;77.86
75646;BME280;64237;52.438;13.240;2023-02-28T00:33:09;102707.13;;;0.75;78.18
75646;BME280;64237;52.438;13.240;2023-02-28T00:35:35;102714.03;;;0.79;78.36
75646;BME280;64237;52.438;13.240;2023-02-28T00:38:00;102720.69;;;0.86;77.15
75646;BME280;64237;52.438;13.240;2023-02-28T00:40:26;102716.94;;;0.87;77.48
75646;BME280;64237;52.438;13.240;2023-02-28T00:42:51;102713.50;;;0.85;77.65
75646;BME280;64237;52.438;13.240;2023-02-28T00:45:16;102718.69;;;0.88;78.07
75646;BME280;64237;52.438;13.240;2023-02-28T00:47:42;102721.63;;;0.96;77.58
75646;BME280;64237;52.438;13.240;2023-02-28T00:50:10;102714.44;;;0.95;78.25
75646;BME280;64237;52.438;13.240;2023-02-28T00:52:35;102723.47;;;0.95;78.07
75646;BME280;64237;52.438;13.240;2023-02-28T00:55:01;102722.47;;;0.96;78.21
75646;BME280;64237;52.438;13.240;2023-02-28T00:57:26;102723.22;;;0.98;78.05
75646;BME280;64237;52.438;13.240;2023-02-28T00:59:52;102720.22;;;1.01;77.55
75646;BME280;64237;52.438;13.240;2023-02-28T01:02:20;102717.13;;;1.06;77.42
75646;BME280;64237;52.438;13.240;2023-02-28T01:04:46;102717.03;;;0.96;77.03
75646;BME280;64237;52.438;13.240;2023-02-28T01:07:11;102716.94;;;0.87;77.75
75646;BME280;64237;52.438;13.240;2023-02-28T01:09:40;102719.47;;;0.79;78.33
75646;BME280;64237;52.438;13.240;2023-02-28T01:12:09;102715.16;;;0.76;78.51
75646;BME280;64237;52.438;13.240;2023-02-28T01:14:34;102722.59;;;0.74;78.41
75646;BME280;64237;52.438;13.240;2023-02-28T01:17:00;102720.34;;;0.79;78.38
75646;BME280;64237;52.438;13.240;2023-02-28T01:19:26;102714.50;;;0.84;78.73
75646;BME280;64237;52.438;13.240;2023-02-28T01:21:51;102722.00;;;0.91;78.09
75646;BME280;64237;52.438;13.240;2023-02-28T01:24:16;102708.72;;;0.77;78.46
75646;BME280;64237;52.438;13.240;2023-02-28T01:26:42;102716.38;;;0.83;78.78
75646;BME280;64237;52.438;13.240;2023-02-28T01:29:07;102713.50;;;0.85;78.17
75646;BME280;64237;52.438;13.240;2023-02-28T01:31:32;102708.59;;;0.79;78.32
75646;BME280;64237;52.438;13.240;2023-02-28T01:34:01;102702.97;;;0.59;79.27
75646;BME280;64237;52.438;13.240;2023-02-28T01:36:27;102705.22;;;0.54;79.21
75646;BME280;64237;52.438;13.240;2023-02-28T01:38:52;102705.00;;;0.46;79.64
75646;BME280;64237;52.438;13.240;2023-02-28T01:41:21;102704.25;;;0.44;79.73
75646;BME280;64237;52.438;13.240;2023-02-28T01:46:13;102702.13;;;0.59;79.38
75646;BME280;64237;52.438;13.240;2023-02-28T01:48:42;102702.13;;;0.59;80.21
75646;BME280;64237;52.438;13.240;2023-02-28T01:51:15;102701.84;;;0.62;79.17
75646;BME280;64237;52.438;13.240;2023-02-28T01:53:45;102701.50;;;0.55;79.40
75646;BME280;64237;52.438;13.240;2023-02-28T01:56:13;102705.72;;;0.48;79.76
75646;BME280;64237;52.438;13.240;2023-02-28T01:58:49;102709.25;;;0.39;80.10
75646;BME280;64237;52.438;13.240;2023-02-28T02:01:15;102702.09;;;0.27;80.80
75646;BME280;64237;52.438;13.240;2023-02-28T02:03:54;102706.97;;;0.44;80.38
75646;BME280;64237;52.438;13.240;2023-02-28T02:06:25;102699.34;;;0.38;80.53
75646;BME280;64237;52.438;13.240;2023-02-28T02:08:52;102701.31;;;0.36;80.43
75646;BME280;64237;52.438;13.240;2023-02-28T02:11:22;102705.28;;;0.32;80.27
75646;BME280;64237;52.438;13.240;2023-02-28T02:27:46;102695.44;;;0.20;80.22
75646;BME280;64237;52.438;13.240;2023-02-28T02:38:38;102694.03;;;-0.29;80.92
75646;BME280;64237;52.438;13.240;2023-02-28T02:43:51;102701.19;;;-0.28;81.15
75646;BME280;64237;52.438;13.240;2023-02-28T02:46:21;102696.50;;;-0.37;81.21
75646;BME280;64237;52.438;13.240;2023-02-28T02:48:53;102699.31;;;-0.39;81.75
75646;BME280;64237;52.438;13.240;2023-02-28T02:51:21;102695.75;;;-0.50;82.15
75646;BME280;64237;52.438;13.240;2023-02-28T02:53:49;102699.59;;;-0.53;82.76
75646;BME280;64237;52.438;13.240;2023-02-28T02:56:31;102709.09;;;-0.58;81.49
75646;BME280;64237;52.438;13.240;2023-02-28T02:59:03;102701.41;;;-0.76;82.57
75646;BME280;64237;52.438;13.240;2023-02-28T03:01:34;102701.41;;;-0.76;82.54
75646;BME280;64237;52.438;13.240;2023-02-28T03:04:06;102700.19;;;-0.60;82.35
75646;BME280;64237;52.438;13.240;2023-02-28T03:06:33;102694.75;;;-0.60;81.65
75646;BME280;64237;52.438;13.240;2023-02-28T03:08:59;102702.66;;;-0.68;82.05
75646;BME280;64237;52.438;13.240;2023-02-28T03:11:25;102695.75;;;-0.73;81.84
75646;BME280;64237;52.438;13.240;2023-02-28T03:16:36;102695.75;;;-0.73;82.19
75646;BME280;64237;52.438;13.240;2023-02-28T03:21:35;102705.59;;;-0.83;82.03
75646;BME280;64237;52.438;13.240;2023-02-28T03:24:06;102713.25;;;-0.88;82.11
75646;BME280;64237;52.438;13.240;2023-02-28T03:26:38;102713.00;;;-0.85;82.19
75646;BME280;64237;52.438;13.240;2023-02-28T03:31:50;102727.66;;;-0.98;82.63
75646;BME280;64237;52.438;13.240;2023-02-28T03:34:22;102720.16;;;-0.95;82.70
75646;BME280;64237;52.438;13.240;2023-02-28T03:36:53;102723.56;;;-1.04;82.39
75646;BME280;64237;52.438;13.240;2023-02-28T03:39:28;102724.28;;;-1.13;82.38
75646;BME280;64237;52.438;13.240;2023-02-28T03:41:59;102727.13;;;-1.15;82.70
75646;BME280;64237;52.438;13.240;2023-02-28T03:44:32;102723.03;;;-1.20;82.70
75646;BME280;64237;52.438;13.240;2023-02-28T03:47:12;102727.19;;;-1.27;83.43
75646;BME280;64237;52.438;13.240;2023-02-28T03:49:47;102734.13;;;-1.23;83.67
75646;BME280;64237;52.438;13.240;2023-02-28T03:52:15;102732.63;;;-1.27;82.49
75646;BME280;64237;52.438;13.240;2023-02-28T03:54:47;102731.88;;;-1.29;82.99
75646;BME280;64237;52.438;13.240;2023-02-28T03:57:23;102731.03;;;-1.30;83.01
75646;BME280;64237;52.438;13.240;2023-02-28T03:59:56;102730.88;;;-1.28;83.11
75646;BME280;64237;52.438;13.240;2023-02-28T04:02:24;102727.44;;;-1.30;82.72
75646;BME280;64237;52.438;13.240;2023-02-28T04:04:50;102733.09;;;-1.33;83.19
75646;BME280;64237;52.438;13.240;2023-02-28T04:07:19;102726.41;;;-1.41;83.49
75646;BME280;64237;52.438;13.240;2023-02-28T04:09:47;102730.84;;;-1.40;83.04
75646;BME280;64237;52.438;13.240;2023-02-28T04:12:12;102729.41;;;-1.32;82.52
75646;BME280;64237;52.438;13.240;2023-02-28T04:14:37;102724.97;;;-1.33;82.53
75646;BME280;64237;52.438;13.240;2023-02-28T04:17:03;102727.91;;;-1.36;83.07
75646;BME280;64237;52.438;13.240;2023-02-28T04:19:28;102729.13;;;-1.41;83.24
75646;BME280;64237;52.438;13.240;2023-02-28T04:21:53;102729.88;;;-1.39;83.07
75646;BME280;64237;52.438;13.240;2023-02-28T04:24:22;102735.28;;;-1.39;82.22
75646;BME280;64237;52.438;13.240;2023-02-28T04:26:50;102734.25;;;-1.49;82.84
75646;BME280;64237;52.438;13.240;2023-02-28T04:29:27;102725.72;;;-1.55;83.10
75646;BME280;64237;52.438;13.240;2023-02-28T04:31:59;102738.25;;;-1.42;82.99
75646;BME280;64237;52.438;13.240;2023-02-28T04:34:30;102739.06;;;-1.52;82.75
75646;BME280;64237;52.438;13.240;2023-02-28T04:36:56;102730.78;;;-1.51;82.78
75646;BME280;64237;52.438;13.240;2023-02-28T04:39:23;102730.63;;;-1.60;82.77
75646;BME280;64237;52.438;13.240;2023-02-28T04:41:52;102741.91;;;-1.54;82.72
75646;BME280;64237;52.438;13.240;2023-02-28T04:44:17;102744.94;;;-1.58;82.52
75646;BME280;64237;52.438;13.240;2023-02-28T04:46:43;102743.25;;;-1.72;83.33
75646;BME280;64237;52.438;13.240;2023-02-28T04:49:12;102741.97;;;-1.79;83.97
75646;BME280;64237;52.438;13.240;2023-02-28T04:51:38;102741.00;;;-1.78;83.34
75646;BME280;64237;52.438;13.240;2023-02-28T04:54:04;102746.22;;;-1.88;84.15
75646;BME280;64237;52.438;13.240;2023-02-28T04:56:29;102743.97;;;-1.94;83.93
75646;BME280;64237;52.438;13.240;2023-02-28T04:58:55;102742.81;;;-2.02;84.33
75646;BME280;64237;52.438;13.240;2023-02-28T05:01:23;102751.06;;;-2.04;84.59
75646;BME280;64237;52.438;13.240;2023-02-28T05:03:54;102747.47;;;-2.04;84.58
75646;BME280;64237;52.438;13.240;2023-02-28T05:06:21;102754.75;;;-2.05;84.15
75646;BME280;64237;52.438;13.240;2023-02-28T05:08:52;102753.56;;;-2.14;85.21
75646;BME280;64237;52.438;13.240;2023-02-28T05:11:21;102746.19;;;-2.12;84.79
75646;BME280;64237;52.438;13.240;2023-02-28T05:13:47;102753.53;;;-2.01;84.00
75646;BME280;64237;52.438;13.240;2023-02-28T05:16:13;102748.78;;;-1.97;84.91
75646;BME280;64237;52.438;13.240;2023-02-28T05:18:42;102747.03;;;-1.98;83.86
75646;BME280;64237;52.438;13.240;2023-02-28T05:23:59;102762.00;;;-2.05;84.89
75646;BME280;64237;52.438;13.240;2023-02-28T05:26:35;102754.19;;;-1.97;83.71
75646;BME280;64237;52.438;13.240;2023-02-28T05:29:00;102755.50;;;-2.03;84.06
75646;BME280;64237;52.438;13.240;2023-02-28T05:31:29;102763.53;;;-2.01;84.93
75646;BME280;64237;52.438;13.240;2023-02-28T05:33:54;102764.78;;;-1.94;83.80
75646;BME280;64237;52.438;13.240;2023-02-28T05:36:20;102765.03;;;-1.97;83.90
75646;BME280;64237;52.438;13.240;2023-02-28T05:38:47;102756.59;;;-2.05;84.18
75646;BME280;64237;52.438;13.240;2023-02-28T05:41:17;102765.47;;;-2.03;83.60
75646;BME280;64237;52.438;13.240;2023-02-28T05:43:47;102767.66;;;-2.09;83.75
75646;BME280;64237;52.438;13.240;2023-02-28T05:46:15;102773.00;;;-2.20;83.92
75646;BME280;64237;52.438;13.240;2023-02-28T05:48:41;102767.47;;;-2.31;84.78
75646;BME280;64237;52.438;13.240;2023-02-28T05:51:08;102772.00;;;-2.31;84.82
75646;BME280;64237;52.438;13.240;2023-02-28T05:53:36;102770.16;;;-2.31;84.81
75646;BME280;64237;52.438;13.240;2023-02-28T05:56:02;102777.94;;;-2.14;84.40
75646;BME280;64237;52.438;13.240;2023-02-28T05:58:30;102773.75;;;-2.18;84.38
75646;BME280;64237;52.438;13.240;2023-02-28T06:01:00;102773.50;;;-2.15;83.92
75646;BME280;64237;52.438;13.240;2023-02-28T06:03:26;102782.22;;;-2.22;84.87
75646;BME280;64237;52.438;13.240;2023-02-28T06:05:55;102776.13;;;-2.26;84.23
75646;BME280;64237;52.438;13.240;2023-02-28T06:08:20;102776.56;;;-2.32;84.58
75646;BME280;64237;52.438;13.240;2023-02-28T06:10:45;102788.50;;;-2.22;84.95
75646;BME280;64237;52.438;13.240;2023-02-28T06:13:17;102783.38;;;-2.14;83.93
75646;BME280;64237;52.438;13.240;2023-02-28T06:15:42;102777.13;;;-2.27;83.75
75646;BME280;64237;52.438;13.240;2023-02-28T06:18:11;102779.81;;;-2.27;84.56
75646;BME280;64237;52.438;13.240;2023-02-28T06:20:39;102786.75;;;-2.23;83.74
75646;BME280;64237;52.438;13.240;2023-02-28T06:23:10;102784.81;;;-2.21;84.30
75646;BME280;64237;52.438;13.240;2023-02-28T06:25:39;102789.56;;;-2.12;84.55
75646;BME280;64237;52.438;13.240;2023-02-28T06:28:10;102789.78;;;-2.02;84.21
75646;BME280;64237;52.438;13.240;2023-02-28T06:30:39;102788.69;;;-1.99;83.56
75646;BME280;64237;52.438;13.240;2023-02-28T06:33:04;102792.16;;;-1.97;83.77
75646;BME280;64237;52.438;13.240;2023-02-28T06:35:30;102793.19;;;-1.87;83.69
75646;BME280;64237;52.438;13.240;2023-02-28T06:37:55;102797.31;;;-1.82;83.30
75646;BME280;64237;52.438;13.240;2023-02-28T06:40:21;102809.47;;;-1.75;83.12
75646;BME280;64237;52.438;13.240;2023-02-28T06:42:52;102810.34;;;-1.74;83.16
75646;BME280;64237;52.438;13.240;2023-02-28T06:45:17;102798.72;;;-1.76;83.18
75646;BME280;64237;52.438;13.240;2023-02-28T06:47:43;102812.28;;;-1.76;83.03
75646;BME280;64237;52.438;13.240;2023-02-28T06:50:12;102817.47;;;-1.73;83.20
75646;BME280;64237;52.438;13.240;2023-02-28T06:52:47;102821.78;;;-1.70;83.00
75646;BME280;64237;52.438;13.240;2023-02-28T06:55:12;102821.03;;;-1.73;83.25
75646;BME280;64237;52.438;13.240;2023-02-28T06:57:38;102814.88;;;-1.75;83.86
75646;BME280;64237;52.438;13.240;2023-02-28T07:00:07;102817.47;;;-1.73;83.95
75646;BME280;64237;52.438;13.240;2023-02-28T07:02:36;102819.03;;;-1.82;83.90
75646;BME280;64237;52.438;13.240;2023-02-28T07:05:03;102828.47;;;-1.87;84.20
75646;BME280;64237;52.438;13.240;2023-02-28T07:07:29;102825.97;;;-1.90;84.22
75646;BME280;64237;52.438;13.240;2023-02-28T07:09:54;102827.47;;;-1.86;84.87
75646;BME280;64237;52.438;13.240;2023-02-28T07:12:20;102822.72;;;-1.83;84.95
75646;BME280;64237;52.438;13.240;2023-02-28T07:14:45;102818.91;;;-1.80;84.86
75646;BME280;64237;52.438;13.240;2023-02-28T07:17:10;102826.34;;;-1.71;85.20
75646;BME280;64237;52.438;13.240;2023-02-28T07:19:38;102831.34;;;-1.65;85.36
75646;BME280;64237;52.438;13.240;2023-02-28T07:22:03;102831.78;;;-1.58;84.99
75646;BME280;64237;52.438;13.240;2023-02-28T07:24:29;102825.91;;;-1.52;84.48
75646;BME280;64237;52.438;13.240;2023-02-28T07:26:58;102828.78;;;-1.43;85.29
75646;BME280;64237;52.438;13.240;2023-02-28T07:29:24;102820.41;;;-1.40;84.94
75646;BME280;64237;52.438;13.240;2023-02-28T07:31:52;102826.66;;;-1.26;84.40
75646;BME280;64237;52.438;13.240;2023-02-28T07:34:19;102826.84;;;-1.17;84.55
75646;BME280;64237;52.438;13.240;2023-02-28T07:36:44;102828.97;;;-1.09;84.12
75646;BME280;64237;52.438;13.240;2023-02-28T07:39:10;102833.69;;;-1.00;84.13
75646;BME280;64237;52.438;13.240;2023-02-28T07:41:35;102828.03;;;-0.97;83.81
75646;BME280;64237;52.438;13.240;2023-02-28T07:44:04;102826.47;;;-0.88;84.52
75646;BME280;64237;52.438;13.240;2023-02-28T07:46:30;102830.72;;;-0.73;83.99
75646;BME280;64237;52.438;13.240;2023-02-28T07:49:00;102828.91;;;-0.61;83.53
75646;BME280;64237;52.438;13.240;2023-02-28T07:51:31;102831.44;;;-0.47;83.17
75646;BME280;64237;52.438;13.240;2023-02-28T07:53:59;102834.28;;;-0.38;82.68
75646;BME280;64237;52.438;13.240;2023-02-28T07:56:24;102828.75;;;-0.25;82.06
75646;BME280;64237;52.438;13.240;2023-02-28T07:58:55;102830.88;;;-0.06;81.65
75646;BME280;64237;52.438;13.240;2023-02-28T08:01:21;102828.53;;;0.12;81.56
75646;BME280;64237;52.438;13.240;2023-02-28T08:03:46;102826.41;;;0.26;79.64
75646;BME280;64237;52.438;13.240;2023-02-28T08:06:22;102824.53;;;0.49;77.40
75646;BME280;64237;52.438;13.240;2023-02-28T08:08:49;102822.25;;;0.65;76.18
75646;BME280;64237;52.438;13.240;2023-02-28T08:11:15;102827.06;;;0.84;72.95
75646;BME280;64237;52.438;13.240;2023-02-28T08:13:41;102831.28;;;1.09;73.21
75646;BME280;64237;52.438;13.240;2023-02-28T08:16:12;102829.00;;;1.25;70.96
75646;BME280;64237;52.438;13.240;2023-02-28T08:18:46;102823.47;;;1.36;66.67
75646;BME280;64237;52.438;13.240;2023-02-28T08:21:12;102820.75;;;1.57;64.14
75646;BME280;64237;52.438;13.240;2023-02-28T08:23:37;102823.22;;;1.81;60.22
75646;BME280;64237;52.438;13.240;2023-02-28T08:26:03;102827.59;;;1.93;64.83
75646;BME280;64237;52.438;13.240;2023-02-28T08:28:29;102828.50;;;2.03;58.70
75646;BME280;64237;52.438;13.240;2023-02-28T08:30:55;102816.66;;;2.24;55.89
75646;BME280;64237;52.438;13.240;2023-02-28T08:33:20;102827.78;;;2.32;55.73
75646;BME280;64237;52.438;13.240;2023-02-28T08:35:46;102838.91;;;2.50;53.83
75646;BME280;64237;52.438;13.240;2023-02-28T08:38:11;102832.75;;;2.57;54.66
75646;BME280;64237;52.438;13.240;2023-02-28T08:40:36;102830.16;;;2.65;57.76
75646;BME280;64237;52.438;13.240;2023-02-28T08:43:08;102821.69;;;2.68;53.10
75646;BME280;64237;52.438;13.240;2023-02-28T08:45:33;102828.94;;;2.89;54.97
75646;BME280;64237;52.438;13.240;2023-02-28T08:47:58;102838.00;;;2.80;53.84
75646;BME280;64237;52.438;13.240;2023-02-28T08:50:24;102830.22;;;3.04;51.05
75646;BME280;64237;52.438;13.240;2023-02-28T08:52:49;102831.97;;;3.15;49.51
75646;BME280;64237;52.438;13.240;2023-02-28T08:55:14;102819.31;;;3.23;49.35
75646;BME280;64237;52.438;13.240;2023-02-28T08:57:40;102826.94;;;3.39;49.15
75646;BME280;64237;52.438;13.240;2023-02-28T09:00:06;102820.44;;;3.30;48.58
75646;BME280;64237;52.438;13.240;2023-02-28T09:02:32;102823.06;;;3.41;49.37
75646;BME280;64237;52.438;13.240;2023-02-28T09:04:57;102824.47;;;3.55;49.24
75646;BME280;64237;52.438;13.240;2023-02-28T09:07:24;102829.34;;;3.71;49.89
75646;BME280;64237;52.438;13.240;2023-02-28T09:09:49;102811.47;;;3.76;45.73
75646;BME280;64237;52.438;13.240;2023-02-28T09:12:25;102818.34;;;3.90;44.47
75646;BME280;64237;52.438;13.240;2023-02-28T09:14:51;102833.59;;;4.02;48.31
75646;BME280;64237;52.438;13.240;2023-02-28T09:17:17;102828.94;;;4.12;44.85
75646;BME280;64237;52.438;13.240;2023-02-28T09:19:42;102823.53;;;3.93;47.56
75646;BME280;64237;52.438;13.240;2023-02-28T09:22:08;102829.56;;;4.06;47.92
75646;BME280;64237;52.438;13.240;2023-02-28T09:24:40;102830.06;;;4.20;44.55
75646;BME280;64237;52.438;13.240;2023-02-28T09:27:05;102821.69;;;4.31;45.93
75646;BME280;64237;52.438;13.240;2023-02-28T09:29:34;102830.97;;;4.10;44.98
75646;BME280;64237;52.438;13.240;2023-02-28T09:32:00;102832.84;;;4.10;47.29
75646;BME280;64237;52.438;13.240;2023-02-28T09:34:28;102832.81;;;4.20;46.05
75646;BME280;64237;52.438;13.240;2023-02-28T09:36:55;102836.09;;;4.33;45.78
75646;BME280;64237;52.438;13.240;2023-02-28T09:39:22;102836.00;;;4.52;46.63
75646;BME280;64237;52.438;13.240;2023-02-28T09:41:50;102828.91;;;4.22;45.43
75646;BME280;64237;52.438;13.240;2023-02-28T09:44:25;102825.47;;;4.47;44.84
75646;BME280;64237;52.438;13.240;2023-02-28T09:46:58;102825.81;;;4.62;44.58
75646;BME280;64237;52.438;13.240;2023-02-28T09:49:31;102829.34;;;4.55;44.83
75646;BME280;64237;52.438;13.240;2023-02-28T09:52:05;102831.41;;;4.43;44.64
75646;BME280;64237;52.438;13.240;2023-02-28T09:54:37;102828.47;;;4.54;45.92
75646;BME280;64237;52.438;13.240;2023-02-28T10:00:18;102831.38;;;4.53;43.34
75646;BME280;64237;52.438;13.240;2023-02-28T10:05:13;102829.34;;;4.55;44.63
75646;BME280;64237;52.438;13.240;2023-02-28T10:10:24;102822.47;;;4.68;45.28
75646;BME280;64237;52.438;13.240;2023-02-28T10:12:53;102820.22;;;4.81;42.45
75646;BME280;64237;52.438;13.240;2023-02-28T10:15:24;102821.63;;;4.86;45.17
75646;BME280;64237;52.438;13.240;2023-02-28T10:17:54;102832.56;;;5.13;45.84
75646;BME280;64237;52.438;13.240;2023-02-28T10:20:23;102817.19;;;5.02;44.38
75646;BME280;64237;52.438;13.240;2023-02-28T10:23:12;102833.97;;;5.35;42.42
75646;BME280;64237;52.438;13.240;2023-02-28T10:25:45;102820.09;;;5.36;43.12
75646;BME280;64237;52.438;13.240;2023-02-28T10:28:15;102823.50;;;5.74;40.19
75646;BME280;64237;52.438;13.240;2023-02-28T10:30:44;102818.94;;;5.65;42.11
75646;BME280;64237;52.438;13.240;2023-02-28T10:35:43;102824.72;;;5.97;41.04
75646;BME280;64237;52.438;13.240;2023-02-28T10:38:16;102824.78;;;6.39;41.89
75646;BME280;64237;52.438;13.240;2023-02-28T10:40:42;102824.31;;;6.52;41.43
75646;BME280;64237;52.438;13.240;2023-02-28T10:43:28;102833.59;;;6.51;40.55
75646;BME280;64237;52.438;13.240;2023-02-28T10:46:04;102824.72;;;6.65;39.45
75646;BME280;64237;52.438;13.240;2023-02-28T10:51:07;102825.25;;;6.27;40.45
75646;BME280;64237;52.438;13.240;2023-02-28T10:53:47;102825.38;;;6.59;40.65
75646;BME280;64237;52.438;13.240;2023-02-28T10:56:18;102815.44;;;6.66;37.56
75646;BME280;64237;52.438;13.240;2023-02-28T11:01:45;102816.94;;;7.19;40.45
75646;BME280;64237;52.438;13.240;2023-02-28T11:04:31;102818.22;;;6.74;38.66
75646;BME280;64237;52.438;13.240;2023-02-28T11:09:45;102804.22;;;7.10;37.92
75646;BME280;64237;52.438;13.240;2023-02-28T11:12:34;102808.00;;;7.41;38.15
75646;BME280;64237;52.438;13.240;2023-02-28T11:15:05;102801.13;;;7.78;39.37
75646;BME280;64237;52.438;13.240;2023-02-28T11:17:32;102799.06;;;7.64;34.93
75646;BME280;64237;52.438;13.240;2023-02-28T11:20:01;102796.84;;;7.27;38.57
75646;BME280;64237;52.438;13.240;2023-02-28T11:22:31;102791.09;;;7.85;36.57
75646;BME280;64237;52.438;13.240;2023-02-28T11:25:01;102787.31;;;7.86;37.58
75646;BME280;64237;52.438;13.240;2023-02-28T11:29:56;102768.25;;;8.23;39.60
75646;BME280;64237;52.438;13.240;2023-02-28T11:32:27;102767.03;;;8.26;36.66
75646;BME280;64237;52.438;13.240;2023-02-28T11:35:15;102773.53;;;6.80;37.89
75646;BME280;64237;52.438;13.240;2023-02-28T11:37:42;102771.53;;;7.31;36.91
75646;BME280;64237;52.438;13.240;2023-02-28T11:40:21;102773.53;;;7.94;36.59
75646;BME280;64237;52.438;13.240;2023-02-28T11:43:26;102765.44;;;8.79;35.97
75646;BME280;64237;52.438;13.240;2023-02-28T11:51:34;102774.44;;;9.64;33.70
75646;BME280;64237;52.438;13.240;2023-02-28T11:56:47;102773.44;;;9.42;33.13
75646;BME280;64237;52.438;13.240;2023-02-28T11:59:35;102761.44;;;9.73;31.62
75646;BME280;64237;52.438;13.240;2023-02-28T12:02:28;102768.00;;;10.01;31.33
75646;BME280;64237;52.438;13.240;2023-02-28T12:19:23;102762.78;;;11.22;29.97
75646;BME280;64237;52.438;13.240;2023-02-28T12:21:58;102768.41;;;11.57;30.33
75646;BME280;64237;52.438;13.240;2023-02-28T12:27:34;102761.41;;;10.61;30.81
75646;BME280;64237;52.438;13.240;2023-02-28T12:32:50;102755.84;;;11.12;30.78
75646;BME280;64237;52.438;13.240;2023-02-28T12:35:21;102756.91;;;10.75;30.73
75646;BME280;64237;52.438;13.240;2023-02-28T12:38:12;102750.44;;;11.46;28.39
75646;BME280;64237;52.438;13.240;2023-02-28T12:40:50;102745.28;;;11.22;28.26
75646;BME280;64237;52.438;13.240;2023-02-28T12:43:20;102742.69;;;11.42;28.84
75646;BME280;64237;52.438;13.240;2023-02-28T12:45:59;102738.75;;;10.21;29.30
75646;BME280;64237;52.438;13.240;2023-02-28T12:48:39;102733.19;;;10.87;29.14
75646;BME280;64237;52.438;13.240;2023-02-28T12:51:08;102724.44;;;10.03;30.68
75646;BME280;64237;52.438;13.240;2023-02-28T12:56:19;102710.09;;;9.55;33.31
75646;BME280;64237;52.438;13.240;2023-02-28T12:58:55;102709.94;;;8.04;34.20
75646;BME280;64237;52.438;13.240;2023-02-28T13:09:22;102694.00;;;8.61;34.12
75646;BME280;64237;52.438;13.240;2023-02-28T13:11:52;102686.09;;;8.19;34.96
75646;BME280;64237;52.438;13.240;2023-02-28T13:19:22;102687.91;;;7.24;37.31
75646;BME280;64237;52.438;13.240;2023-02-28T13:21:55;102681.06;;;7.04;35.84
75646;BME280;64237;52.438;13.240;2023-02-28T13:29:39;102681.09;;;6.29;40.80
75646;BME280;64237;52.438;13.240;2023-02-28T13:47:43;102677.31;;;5.88;40.51
75646;BME280;64237;52.438;13.240;2023-02-28T13:50:33;102681.88;;;5.97;41.50
75646;BME280;64237;52.438;13.240;2023-02-28T13:56:10;102673.69;;;6.13;41.92
75646;BME280;64237;52.438;13.240;2023-02-28T13:59:23;102664.00;;;5.93;39.05
75646;BME280;64237;52.438;13.240;2023-02-28T14:06:50;102653.06;;;6.09;41.40
75646;BME280;64237;52.438;13.240;2023-02-28T14:11:43;102647.94;;;6.14;40.30
75646;BME280;64237;52.438;13.240;2023-02-28T14:14:09;102656.44;;;5.95;42.21
75646;BME280;64237;52.438;13.240;2023-02-28T14:16:55;102658.81;;;5.90;39.91
75646;BME280;64237;52.438;13.240;2023-02-28T14:19:27;102643.75;;;5.94;41.07
75646;BME280;64237;52.438;13.240;2023-02-28T14:33:05;102662.22;;;5.84;41.84
75646;BME280;64237;52.438;13.240;2023-02-28T14:37:50;102653.56;;;5.71;42.45
75646;BME280;64237;52.438;13.240;2023-02-28T14:40:26;102660.16;;;5.86;42.96
75646;BME280;64237;52.438;13.240;2023-02-28T14:43:01;102654.19;;;5.91;40.33
75646;BME280;64237;52.438;13.240;2023-02-28T14:45:33;102650.03;;;5.86;38.82
75646;BME280;64237;52.438;13.240;2023-02-28T14:48:02;102653.78;;;5.85;42.01
75646;BME280;64237;52.438;13.240;2023-02-28T14:50:32;102646.06;;;5.81;41.11
75646;BME280;64237;52.438;13.240;2023-02-28T14:52:59;102650.44;;;5.66;42.55
75646;BME280;64237;52.438;13.240;2023-02-28T14:55:30;102648.41;;;5.68;40.14
75646;BME280;64237;52.438;13.240;2023-02-28T14:57:59;102629.03;;;5.43;40.60
75646;BME280;64237;52.438;13.240;2023-02-28T15:00:32;102634.19;;;5.38;41.03
75646;BME280;64237;52.438;13.240;2023-02-28T15:03:00;102652.03;;;5.42;41.67
75646;BME280;64237;52.438;13.240;2023-02-28T15:05:29;102647.13;;;5.54;42.32
75646;BME280;64237;52.438;13.240;2023-02-28T15:08:14;102652.09;;;5.50;40.59
75646;BME280;64237;52.438;13.240;2023-02-28T15:10:43;102648.16;;;5.53;40.87
75646;BME280;64237;52.438;13.240;2023-02-28T15:13:14;102637.97;;;5.45;43.02
75646;BME280;64237;52.438;13.240;2023-02-28T15:21:06;102639.63;;;5.30;42.77
75646;BME280;64237;52.438;13.240;2023-02-28T15:23:34;102638.13;;;5.36;41.79
75646;BME280;64237;52.438;13.240;2023-02-28T15:26:01;102625.19;;;5.28;43.91
75646;BME280;64237;52.438;13.240;2023-02-28T15:28:28;102616.59;;;4.97;45.65
75646;BME280;64237;52.438;13.240;2023-02-28T15:30:59;102631.69;;;5.19;43.55